This is the latest recevied weather packets stored in our database for station/object OK1FCB-1. If no packets are shown the sender has not sent any weather packets the latest 10 day(s).
| Time | Temp. | Humidity | Pressure | Rain* | Wind** | Luminosity | Snow |
|---|---|---|---|---|---|---|---|
| 1777442302 | 11.11° C | 40% | 1029.8 hPa | - | - | - | - |
| 1777438706 | 4.44° C | 55% | 1029.5 hPa | - | - | - | - |
| 1777436900 | -1.11° C | 61% | 1029.4 hPa | - | - | - | - |
| 1777436002 | -1.67° C | 62% | 1029.5 hPa | - | - | - | - |
| 1777431512 | -2.22° C | 61% | 1029.1 hPa | - | - | - | - |
| 1777421642 | 0.56° C | 51% | 1028.6 hPa | - | - | - | - |
| 1777419855 | 1.67° C | 49% | 1028.5 hPa | - | - | - | - |
| 1777418952 | 2.78° C | 46% | 1028.5 hPa | - | - | - | - |
| 1777413574 | 5° C | 42% | 1028.1 hPa | - | - | - | - |
| 1777413568 | 5° C | 42% | 1028.1 hPa | - | - | - | - |
| 1777411772 | 5° C | 41% | 1028 hPa | - | - | - | - |
| 1777409079 | 6.11° C | 40% | 1027.6 hPa | - | - | - | - |
| 1777408181 | 6.11° C | 40% | 1027.6 hPa | - | - | - | - |
| 1777406392 | 6.67° C | 38% | 1027.4 hPa | - | - | - | - |
| 1777405495 | 7.22° C | 36% | 1027.3 hPa | - | - | - | - |
| 1777405489 | 7.22° C | 36% | 1027.3 hPa | - | - | - | - |
| 1777404598 | 7.78° C | 35% | 1027.2 hPa | - | - | - | - |
| 1777402804 | 8.89° C | 34% | 1027.1 hPa | - | - | - | - |
| 1777402798 | 8.89° C | 34% | 1027.1 hPa | - | - | - | - |
| 1777401908 | 9.44° C | 33% | 1026.9 hPa | - | - | - | - |
| 1777401901 | 9.44° C | 33% | 1026.9 hPa | - | - | - | - |
| 1777399216 | 11.11° C | 31% | 1026.2 hPa | - | - | - | - |
| 1777399210 | 11.11° C | 31% | 1026.2 hPa | - | - | - | - |
| 1777397424 | 13.89° C | 28% | 1025.7 hPa | - | - | - | - |
| 1777396529 | 17.78° C | 25% | 1025.4 hPa | - | - | - | - |
* Rain since midnight (hover to see other rain measurements)
** Current wind speed in m/s (hover to see current wind gust speed)